createdAt,value
2019-02-11T07:15:11.302Z,85.20
2019-02-11T07:20:18.107Z,76.50
2019-02-11T07:25:22.567Z,77.00
2019-02-11T07:30:27.012Z,73.70
2019-02-11T07:35:31.411Z,73.30
2019-02-11T07:40:34.838Z,71.30
2019-02-11T07:45:48.608Z,70.30
2019-02-11T07:50:52.821Z,70.30
2019-02-11T07:55:57.067Z,68.90
2019-02-11T08:01:00.691Z,69.60
2019-02-11T08:06:05.367Z,70.70
2019-02-11T08:11:09.839Z,70.40
2019-02-11T08:16:14.075Z,68.70
2019-02-11T08:21:18.207Z,68.30
2019-02-11T08:26:22.581Z,67.80
2019-02-11T08:31:26.936Z,68.50
2019-02-11T08:36:31.724Z,68.40
2019-02-11T08:41:35.711Z,68.40
2019-02-11T08:46:39.809Z,66.60
2019-02-11T08:51:44.479Z,66.30
2019-02-11T08:56:49.681Z,65.70
2019-02-11T09:01:54.951Z,65.30
2019-02-11T09:06:59.929Z,64.80
2019-02-11T09:12:05.106Z,63.90
2019-02-11T09:17:11.615Z,64.60
2019-02-11T09:22:17.351Z,63.30
2019-02-11T09:27:22.435Z,63.20
2019-02-11T09:32:28.523Z,63.40
2019-02-11T09:37:34.227Z,62.70
2019-02-11T09:42:40.011Z,63.00
2019-02-11T09:47:45.218Z,62.40
2019-02-11T09:52:50.829Z,62.80
2019-02-11T09:57:56.393Z,62.80
2019-02-11T10:03:03.099Z,61.30
2019-02-11T10:08:08.338Z,61.30
2019-02-11T10:13:14.208Z,60.20
2019-02-11T10:18:19.033Z,59.30
2019-02-11T10:23:24.506Z,58.30
2019-02-11T10:28:29.865Z,58.40
2019-02-11T10:33:35.169Z,57.70
2019-02-11T10:38:40.356Z,58.40
2019-02-11T10:43:46.257Z,56.70
2019-02-11T10:48:51.665Z,57.20
2019-02-11T10:53:56.993Z,57.20
2019-02-11T10:59:02.199Z,56.90
2019-02-11T11:04:07.552Z,58.70
2019-02-11T11:09:15.592Z,56.40
2019-02-11T11:14:21.930Z,56.10
2019-02-11T11:19:27.062Z,53.80
2019-02-11T11:24:32.195Z,54.30
2019-02-11T11:29:37.432Z,53.90
2019-02-11T11:34:42.695Z,54.10
2019-02-11T11:39:48.137Z,53.60
2019-02-11T11:44:54.094Z,55.10
2019-02-11T11:49:59.692Z,55.40
2019-02-11T11:55:06.141Z,52.00
2019-02-11T12:00:21.946Z,51.40
2019-02-11T12:05:27.964Z,52.20
2019-02-11T12:10:34.206Z,52.00
2019-02-11T12:15:38.847Z,50.90
2019-02-11T12:20:43.692Z,51.90
2019-02-11T12:25:47.385Z,51.70
2019-02-11T12:30:54.268Z,50.30
2019-02-11T12:35:57.794Z,49.30
2019-02-11T12:41:02.732Z,47.60
2019-02-11T12:46:06.520Z,48.00
2019-02-11T12:51:10.314Z,46.50
2019-02-11T12:56:14.008Z,46.50
2019-02-11T13:01:18.691Z,47.20
2019-02-11T13:06:22.998Z,48.60
2019-02-11T13:11:27.289Z,49.00
2019-02-11T13:16:31.686Z,49.30
2019-02-11T13:21:36.068Z,49.90
2019-02-11T13:26:40.490Z,49.70
2019-02-11T13:31:44.659Z,49.30
2019-02-11T13:36:48.889Z,48.80
2019-02-11T13:41:53.090Z,50.30
2019-02-11T13:46:57.150Z,50.90
2019-02-11T13:52:01.586Z,52.00
2019-02-11T13:57:06.129Z,50.10
2019-02-11T14:02:10.373Z,50.40
2019-02-11T14:07:14.466Z,49.70
2019-02-11T14:12:19.422Z,50.70
2019-02-11T14:17:24.065Z,49.80
2019-02-11T14:22:28.977Z,50.80
2019-02-11T14:27:34.287Z,48.20
2019-02-11T14:32:39.962Z,47.30
2019-02-11T14:37:47.195Z,48.50
2019-02-11T14:42:52.587Z,49.80
2019-02-11T14:47:58.719Z,48.90
2019-02-11T14:53:04.407Z,48.90
2019-02-11T14:58:09.837Z,49.80
2019-02-11T15:03:15.070Z,50.00
2019-02-11T15:08:20.360Z,50.00
2019-02-11T15:13:24.527Z,50.20
2019-02-11T15:18:34.248Z,50.10
